sensor_id;sensor_type;location;lat;lon;timestamp;P1;durP1;ratioP1;P2;durP2;ratioP2
73959;SDS011;62316;48.920;2.342;2024-03-08T00:00:08;52.75;;;44.25;;
73959;SDS011;62316;48.920;2.342;2024-03-08T00:02:39;42.50;;;37.50;;
73959;SDS011;62316;48.920;2.342;2024-03-08T00:05:05;48.50;;;40.75;;
73959;SDS011;62316;48.920;2.342;2024-03-08T00:07:31;44.25;;;36.50;;
73959;SDS011;62316;48.920;2.342;2024-03-08T00:09:56;41.25;;;36.00;;
73959;SDS011;62316;48.920;2.342;2024-03-08T00:12:21;56.75;;;43.00;;
73959;SDS011;62316;48.920;2.342;2024-03-08T00:14:46;59.25;;;47.25;;
73959;SDS011;62316;48.920;2.342;2024-03-08T00:17:12;50.50;;;41.00;;
73959;SDS011;62316;48.920;2.342;2024-03-08T00:19:37;48.25;;;40.75;;
73959;SDS011;62316;48.920;2.342;2024-03-08T00:22:02;57.75;;;44.00;;
73959;SDS011;62316;48.920;2.342;2024-03-08T00:24:27;53.25;;;38.50;;
73959;SDS011;62316;48.920;2.342;2024-03-08T00:26:53;50.50;;;37.25;;
73959;SDS011;62316;48.920;2.342;2024-03-08T00:29:19;51.00;;;40.75;;
73959;SDS011;62316;48.920;2.342;2024-03-08T00:31:44;48.50;;;40.75;;
73959;SDS011;62316;48.920;2.342;2024-03-08T00:34:09;53.00;;;40.50;;
73959;SDS011;62316;48.920;2.342;2024-03-08T00:36:36;50.00;;;40.25;;
73959;SDS011;62316;48.920;2.342;2024-03-08T00:39:01;53.50;;;42.00;;
73959;SDS011;62316;48.920;2.342;2024-03-08T00:41:28;34.25;;;29.75;;
73959;SDS011;62316;48.920;2.342;2024-03-08T00:43:53;46.75;;;39.75;;
73959;SDS011;62316;48.920;2.342;2024-03-08T00:46:18;54.50;;;41.50;;
73959;SDS011;62316;48.920;2.342;2024-03-08T00:48:44;54.75;;;42.75;;
73959;SDS011;62316;48.920;2.342;2024-03-08T00:51:09;56.75;;;45.00;;
73959;SDS011;62316;48.920;2.342;2024-03-08T00:53:34;50.50;;;39.25;;
73959;SDS011;62316;48.920;2.342;2024-03-08T00:56:00;46.75;;;38.75;;
73959;SDS011;62316;48.920;2.342;2024-03-08T00:58:25;46.25;;;39.25;;
73959;SDS011;62316;48.920;2.342;2024-03-08T01:00:50;54.00;;;42.00;;
73959;SDS011;62316;48.920;2.342;2024-03-08T01:03:15;52.00;;;40.00;;
73959;SDS011;62316;48.920;2.342;2024-03-08T01:05:41;49.00;;;39.00;;
73959;SDS011;62316;48.920;2.342;2024-03-08T01:08:06;55.00;;;43.50;;
73959;SDS011;62316;48.920;2.342;2024-03-08T01:10:32;51.50;;;39.25;;
73959;SDS011;62316;48.920;2.342;2024-03-08T01:12:57;43.25;;;35.00;;
73959;SDS011;62316;48.920;2.342;2024-03-08T01:15:24;53.25;;;41.50;;
73959;SDS011;62316;48.920;2.342;2024-03-08T01:17:49;52.25;;;41.25;;
73959;SDS011;62316;48.920;2.342;2024-03-08T01:20:15;53.00;;;39.50;;
73959;SDS011;62316;48.920;2.342;2024-03-08T01:22:40;52.25;;;40.50;;
73959;SDS011;62316;48.920;2.342;2024-03-08T01:25:05;57.00;;;42.00;;
73959;SDS011;62316;48.920;2.342;2024-03-08T01:27:31;56.50;;;43.25;;
73959;SDS011;62316;48.920;2.342;2024-03-08T01:29:56;53.00;;;42.25;;
73959;SDS011;62316;48.920;2.342;2024-03-08T01:32:21;49.50;;;42.00;;
73959;SDS011;62316;48.920;2.342;2024-03-08T01:34:48;53.50;;;41.50;;
73959;SDS011;62316;48.920;2.342;2024-03-08T01:37:13;50.50;;;40.75;;
73959;SDS011;62316;48.920;2.342;2024-03-08T01:39:39;55.50;;;44.75;;
73959;SDS011;62316;48.920;2.342;2024-03-08T01:42:04;52.75;;;40.25;;
73959;SDS011;62316;48.920;2.342;2024-03-08T01:44:30;52.00;;;43.00;;
73959;SDS011;62316;48.920;2.342;2024-03-08T01:46:56;49.50;;;39.75;;
73959;SDS011;62316;48.920;2.342;2024-03-08T01:49:21;53.75;;;40.50;;
73959;SDS011;62316;48.920;2.342;2024-03-08T01:51:48;51.25;;;39.75;;
73959;SDS011;62316;48.920;2.342;2024-03-08T01:54:14;55.25;;;42.75;;
73959;SDS011;62316;48.920;2.342;2024-03-08T01:56:40;42.25;;;38.75;;
73959;SDS011;62316;48.920;2.342;2024-03-08T01:59:05;49.25;;;39.25;;
73959;SDS011;62316;48.920;2.342;2024-03-08T02:01:32;57.50;;;43.00;;
73959;SDS011;62316;48.920;2.342;2024-03-08T02:03:58;55.75;;;41.25;;
73959;SDS011;62316;48.920;2.342;2024-03-08T02:06:23;52.25;;;41.25;;
73959;SDS011;62316;48.920;2.342;2024-03-08T02:08:49;56.50;;;44.25;;
73959;SDS011;62316;48.920;2.342;2024-03-08T02:11:14;61.75;;;44.25;;
73959;SDS011;62316;48.920;2.342;2024-03-08T02:13:40;48.00;;;39.25;;
73959;SDS011;62316;48.920;2.342;2024-03-08T02:16:06;55.25;;;41.25;;
73959;SDS011;62316;48.920;2.342;2024-03-08T02:18:33;37.75;;;35.50;;
73959;SDS011;62316;48.920;2.342;2024-03-08T02:21:00;56.50;;;43.50;;
73959;SDS011;62316;48.920;2.342;2024-03-08T02:23:25;48.50;;;38.50;;
73959;SDS011;62316;48.920;2.342;2024-03-08T02:25:51;49.75;;;42.00;;
73959;SDS011;62316;48.920;2.342;2024-03-08T02:28:16;56.50;;;43.00;;
73959;SDS011;62316;48.920;2.342;2024-03-08T02:30:45;54.50;;;40.50;;
73959;SDS011;62316;48.920;2.342;2024-03-08T02:33:13;45.50;;;41.25;;
73959;SDS011;62316;48.920;2.342;2024-03-08T02:35:38;51.75;;;39.25;;
73959;SDS011;62316;48.920;2.342;2024-03-08T02:38:03;53.75;;;41.25;;
73959;SDS011;62316;48.920;2.342;2024-03-08T02:40:29;55.00;;;46.00;;
73959;SDS011;62316;48.920;2.342;2024-03-08T02:42:54;58.50;;;44.25;;
73959;SDS011;62316;48.920;2.342;2024-03-08T02:45:19;53.50;;;40.75;;
73959;SDS011;62316;48.920;2.342;2024-03-08T02:47:45;57.25;;;45.25;;
73959;SDS011;62316;48.920;2.342;2024-03-08T02:50:10;48.75;;;39.50;;
73959;SDS011;62316;48.920;2.342;2024-03-08T02:52:36;56.75;;;41.75;;
73959;SDS011;62316;48.920;2.342;2024-03-08T02:55:02;51.50;;;41.50;;
73959;SDS011;62316;48.920;2.342;2024-03-08T02:57:27;47.50;;;39.00;;
73959;SDS011;62316;48.920;2.342;2024-03-08T02:59:55;49.00;;;39.25;;
73959;SDS011;62316;48.920;2.342;2024-03-08T03:02:21;58.50;;;45.00;;
73959;SDS011;62316;48.920;2.342;2024-03-08T03:04:48;60.75;;;39.75;;
73959;SDS011;62316;48.920;2.342;2024-03-08T03:07:13;54.75;;;41.00;;
73959;SDS011;62316;48.920;2.342;2024-03-08T03:09:38;55.00;;;44.75;;
73959;SDS011;62316;48.920;2.342;2024-03-08T03:12:04;53.00;;;43.75;;
73959;SDS011;62316;48.920;2.342;2024-03-08T03:14:29;52.50;;;40.50;;
73959;SDS011;62316;48.920;2.342;2024-03-08T03:16:54;54.50;;;42.50;;
73959;SDS011;62316;48.920;2.342;2024-03-08T03:19:20;54.00;;;41.00;;
73959;SDS011;62316;48.920;2.342;2024-03-08T03:21:45;42.50;;;38.75;;
73959;SDS011;62316;48.920;2.342;2024-03-08T03:24:10;55.00;;;42.00;;
73959;SDS011;62316;48.920;2.342;2024-03-08T03:26:37;56.50;;;44.50;;
73959;SDS011;62316;48.920;2.342;2024-03-08T03:29:05;53.00;;;41.00;;
73959;SDS011;62316;48.920;2.342;2024-03-08T03:31:31;51.00;;;39.25;;
73959;SDS011;62316;48.920;2.342;2024-03-08T03:33:56;50.50;;;44.00;;
73959;SDS011;62316;48.920;2.342;2024-03-08T03:36:26;49.00;;;40.75;;
73959;SDS011;62316;48.920;2.342;2024-03-08T03:38:52;42.50;;;35.50;;
73959;SDS011;62316;48.920;2.342;2024-03-08T03:41:29;44.00;;;37.25;;
73959;SDS011;62316;48.920;2.342;2024-03-08T03:43:54;45.75;;;39.00;;
73959;SDS011;62316;48.920;2.342;2024-03-08T03:46:19;57.50;;;42.25;;
73959;SDS011;62316;48.920;2.342;2024-03-08T03:48:44;55.50;;;42.25;;
73959;SDS011;62316;48.920;2.342;2024-03-08T03:51:10;54.25;;;42.75;;
73959;SDS011;62316;48.920;2.342;2024-03-08T03:53:35;51.00;;;42.50;;
73959;SDS011;62316;48.920;2.342;2024-03-08T03:56:00;53.00;;;44.75;;
73959;SDS011;62316;48.920;2.342;2024-03-08T03:58:25;52.50;;;38.50;;
73959;SDS011;62316;48.920;2.342;2024-03-08T04:00:52;59.50;;;41.75;;
73959;SDS011;62316;48.920;2.342;2024-03-08T04:03:17;54.25;;;43.00;;
73959;SDS011;62316;48.920;2.342;2024-03-08T04:05:42;60.25;;;41.25;;
73959;SDS011;62316;48.920;2.342;2024-03-08T04:08:07;53.00;;;41.25;;
73959;SDS011;62316;48.920;2.342;2024-03-08T04:10:33;58.50;;;47.25;;
73959;SDS011;62316;48.920;2.342;2024-03-08T04:12:58;60.00;;;43.25;;
73959;SDS011;62316;48.920;2.342;2024-03-08T04:15:23;42.00;;;33.50;;
73959;SDS011;62316;48.920;2.342;2024-03-08T04:17:48;54.75;;;42.00;;
73959;SDS011;62316;48.920;2.342;2024-03-08T04:20:14;56.75;;;42.00;;
73959;SDS011;62316;48.920;2.342;2024-03-08T04:22:39;60.75;;;46.25;;
73959;SDS011;62316;48.920;2.342;2024-03-08T04:25:05;43.25;;;40.00;;
73959;SDS011;62316;48.920;2.342;2024-03-08T04:27:31;54.25;;;40.75;;
73959;SDS011;62316;48.920;2.342;2024-03-08T04:29:57;60.75;;;47.25;;
73959;SDS011;62316;48.920;2.342;2024-03-08T04:32:22;55.00;;;42.00;;
73959;SDS011;62316;48.920;2.342;2024-03-08T04:34:48;52.75;;;41.75;;
73959;SDS011;62316;48.920;2.342;2024-03-08T04:37:14;56.50;;;44.25;;
73959;SDS011;62316;48.920;2.342;2024-03-08T04:39:39;60.75;;;45.25;;
73959;SDS011;62316;48.920;2.342;2024-03-08T04:42:05;49.25;;;38.50;;
73959;SDS011;62316;48.920;2.342;2024-03-08T04:44:34;56.50;;;43.50;;
73959;SDS011;62316;48.920;2.342;2024-03-08T04:47:00;50.50;;;43.00;;
73959;SDS011;62316;48.920;2.342;2024-03-08T04:49:25;49.50;;;41.50;;
73959;SDS011;62316;48.920;2.342;2024-03-08T04:51:50;48.00;;;39.00;;
73959;SDS011;62316;48.920;2.342;2024-03-08T04:54:15;55.75;;;42.50;;
73959;SDS011;62316;48.920;2.342;2024-03-08T04:56:41;54.00;;;40.25;;
73959;SDS011;62316;48.920;2.342;2024-03-08T04:59:06;53.00;;;43.00;;
73959;SDS011;62316;48.920;2.342;2024-03-08T05:01:33;55.75;;;41.25;;
73959;SDS011;62316;48.920;2.342;2024-03-08T05:03:58;52.75;;;39.50;;
73959;SDS011;62316;48.920;2.342;2024-03-08T05:06:23;56.00;;;45.25;;
73959;SDS011;62316;48.920;2.342;2024-03-08T05:08:49;55.00;;;42.50;;
73959;SDS011;62316;48.920;2.342;2024-03-08T05:11:14;50.50;;;40.00;;
73959;SDS011;62316;48.920;2.342;2024-03-08T05:13:39;46.50;;;39.50;;
73959;SDS011;62316;48.920;2.342;2024-03-08T05:16:05;55.75;;;42.00;;
73959;SDS011;62316;48.920;2.342;2024-03-08T05:18:30;56.50;;;40.50;;
73959;SDS011;62316;48.920;2.342;2024-03-08T05:20:57;58.75;;;45.75;;
73959;SDS011;62316;48.920;2.342;2024-03-08T05:23:22;54.75;;;43.00;;
73959;SDS011;62316;48.920;2.342;2024-03-08T05:25:47;55.25;;;42.75;;
73959;SDS011;62316;48.920;2.342;2024-03-08T05:28:12;57.25;;;42.25;;
73959;SDS011;62316;48.920;2.342;2024-03-08T05:30:38;55.00;;;43.25;;
73959;SDS011;62316;48.920;2.342;2024-03-08T05:33:03;47.00;;;40.00;;
73959;SDS011;62316;48.920;2.342;2024-03-08T05:35:29;56.50;;;46.50;;
73959;SDS011;62316;48.920;2.342;2024-03-08T05:37:54;58.25;;;44.00;;
73959;SDS011;62316;48.920;2.342;2024-03-08T05:40:19;61.50;;;46.00;;
73959;SDS011;62316;48.920;2.342;2024-03-08T05:42:44;61.25;;;48.50;;
73959;SDS011;62316;48.920;2.342;2024-03-08T05:45:09;59.25;;;44.75;;
73959;SDS011;62316;48.920;2.342;2024-03-08T05:47:36;62.00;;;47.00;;
73959;SDS011;62316;48.920;2.342;2024-03-08T05:50:01;60.50;;;46.75;;
73959;SDS011;62316;48.920;2.342;2024-03-08T05:52:26;56.00;;;45.50;;
73959;SDS011;62316;48.920;2.342;2024-03-08T05:54:52;59.50;;;46.00;;
73959;SDS011;62316;48.920;2.342;2024-03-08T05:57:17;60.75;;;48.00;;
73959;SDS011;62316;48.920;2.342;2024-03-08T05:59:42;63.00;;;46.25;;
73959;SDS011;62316;48.920;2.342;2024-03-08T06:02:07;60.00;;;44.75;;
73959;SDS011;62316;48.920;2.342;2024-03-08T06:04:33;64.50;;;49.50;;
73959;SDS011;62316;48.920;2.342;2024-03-08T06:06:58;66.00;;;47.75;;
73959;SDS011;62316;48.920;2.342;2024-03-08T06:09:23;60.25;;;45.50;;
73959;SDS011;62316;48.920;2.342;2024-03-08T06:11:49;66.25;;;46.25;;
73959;SDS011;62316;48.920;2.342;2024-03-08T06:14:15;62.25;;;46.50;;
73959;SDS011;62316;48.920;2.342;2024-03-08T06:16:43;63.50;;;48.00;;
73959;SDS011;62316;48.920;2.342;2024-03-08T06:19:09;54.50;;;42.00;;
73959;SDS011;62316;48.920;2.342;2024-03-08T06:21:34;67.00;;;52.25;;
73959;SDS011;62316;48.920;2.342;2024-03-08T06:23:59;59.50;;;47.25;;
73959;SDS011;62316;48.920;2.342;2024-03-08T06:26:24;58.50;;;43.50;;
73959;SDS011;62316;48.920;2.342;2024-03-08T06:28:50;58.50;;;44.00;;
73959;SDS011;62316;48.920;2.342;2024-03-08T06:31:16;62.75;;;45.25;;
73959;SDS011;62316;48.920;2.342;2024-03-08T06:33:41;57.75;;;46.50;;
73959;SDS011;62316;48.920;2.342;2024-03-08T06:36:06;61.00;;;47.00;;
73959;SDS011;62316;48.920;2.342;2024-03-08T06:38:32;62.00;;;46.50;;
73959;SDS011;62316;48.920;2.342;2024-03-08T06:40:57;60.00;;;45.50;;
73959;SDS011;62316;48.920;2.342;2024-03-08T06:43:23;60.00;;;45.50;;
73959;SDS011;62316;48.920;2.342;2024-03-08T06:45:56;61.25;;;46.50;;
73959;SDS011;62316;48.920;2.342;2024-03-08T06:48:22;59.25;;;47.25;;
73959;SDS011;62316;48.920;2.342;2024-03-08T06:50:48;55.25;;;44.50;;
73959;SDS011;62316;48.920;2.342;2024-03-08T06:53:13;61.00;;;46.75;;
73959;SDS011;62316;48.920;2.342;2024-03-08T06:55:39;57.50;;;45.50;;
73959;SDS011;62316;48.920;2.342;2024-03-08T06:58:04;59.00;;;47.50;;
73959;SDS011;62316;48.920;2.342;2024-03-08T07:00:29;64.75;;;47.00;;
73959;SDS011;62316;48.920;2.342;2024-03-08T07:02:55;63.25;;;46.75;;
73959;SDS011;62316;48.920;2.342;2024-03-08T07:05:22;56.50;;;46.25;;
73959;SDS011;62316;48.920;2.342;2024-03-08T07:07:49;59.75;;;47.25;;
73959;SDS011;62316;48.920;2.342;2024-03-08T07:10:14;59.75;;;46.25;;
73959;SDS011;62316;48.920;2.342;2024-03-08T07:12:40;62.50;;;48.00;;
73959;SDS011;62316;48.920;2.342;2024-03-08T07:15:06;57.75;;;43.75;;
73959;SDS011;62316;48.920;2.342;2024-03-08T07:17:32;60.00;;;48.50;;
73959;SDS011;62316;48.920;2.342;2024-03-08T07:20:05;72.25;;;53.50;;
73959;SDS011;62316;48.920;2.342;2024-03-08T07:22:36;60.75;;;44.50;;
73959;SDS011;62316;48.920;2.342;2024-03-08T07:25:05;59.00;;;44.75;;
73959;SDS011;62316;48.920;2.342;2024-03-08T07:27:45;66.75;;;49.75;;
73959;SDS011;62316;48.920;2.342;2024-03-08T07:30:11;62.00;;;45.50;;
73959;SDS011;62316;48.920;2.342;2024-03-08T07:32:36;59.25;;;44.25;;
73959;SDS011;62316;48.920;2.342;2024-03-08T07:35:01;66.25;;;46.25;;
73959;SDS011;62316;48.920;2.342;2024-03-08T07:37:27;56.75;;;46.25;;
73959;SDS011;62316;48.920;2.342;2024-03-08T07:39:52;63.25;;;48.00;;
73959;SDS011;62316;48.920;2.342;2024-03-08T07:42:17;65.00;;;47.75;;
73959;SDS011;62316;48.920;2.342;2024-03-08T07:44:42;56.25;;;41.00;;
73959;SDS011;62316;48.920;2.342;2024-03-08T07:47:08;58.25;;;43.75;;
73959;SDS011;62316;48.920;2.342;2024-03-08T07:49:34;61.75;;;42.25;;
73959;SDS011;62316;48.920;2.342;2024-03-08T07:52:00;60.75;;;47.50;;
73959;SDS011;62316;48.920;2.342;2024-03-08T07:54:25;59.00;;;47.50;;
73959;SDS011;62316;48.920;2.342;2024-03-08T07:56:51;47.75;;;37.50;;
73959;SDS011;62316;48.920;2.342;2024-03-08T07:59:16;61.75;;;48.50;;
73959;SDS011;62316;48.920;2.342;2024-03-08T08:01:41;56.25;;;42.75;;
73959;SDS011;62316;48.920;2.342;2024-03-08T08:04:07;59.50;;;47.25;;
73959;SDS011;62316;48.920;2.342;2024-03-08T08:06:37;61.00;;;45.25;;
73959;SDS011;62316;48.920;2.342;2024-03-08T08:09:04;59.75;;;43.00;;
73959;SDS011;62316;48.920;2.342;2024-03-08T08:11:30;56.75;;;45.00;;
73959;SDS011;62316;48.920;2.342;2024-03-08T08:13:56;53.00;;;44.00;;
73959;SDS011;62316;48.920;2.342;2024-03-08T08:16:24;60.25;;;44.75;;
73959;SDS011;62316;48.920;2.342;2024-03-08T08:18:50;53.75;;;41.75;;
73959;SDS011;62316;48.920;2.342;2024-03-08T08:21:16;62.50;;;47.75;;
73959;SDS011;62316;48.920;2.342;2024-03-08T08:23:41;56.00;;;45.25;;
73959;SDS011;62316;48.920;2.342;2024-03-08T08:26:06;52.25;;;41.75;;
73959;SDS011;62316;48.920;2.342;2024-03-08T08:28:32;52.00;;;38.75;;
73959;SDS011;62316;48.920;2.342;2024-03-08T08:30:58;52.75;;;42.25;;
73959;SDS011;62316;48.920;2.342;2024-03-08T08:33:24;50.00;;;39.50;;
73959;SDS011;62316;48.920;2.342;2024-03-08T08:35:53;51.75;;;38.25;;
73959;SDS011;62316;48.920;2.342;2024-03-08T08:38:19;37.75;;;30.00;;
73959;SDS011;62316;48.920;2.342;2024-03-08T08:40:45;54.75;;;42.25;;
73959;SDS011;62316;48.920;2.342;2024-03-08T08:43:11;47.25;;;41.50;;
73959;SDS011;62316;48.920;2.342;2024-03-08T08:45:36;51.00;;;40.75;;
73959;SDS011;62316;48.920;2.342;2024-03-08T08:48:03;52.00;;;38.75;;
73959;SDS011;62316;48.920;2.342;2024-03-08T08:50:30;53.00;;;41.75;;
73959;SDS011;62316;48.920;2.342;2024-03-08T08:52:56;47.25;;;37.25;;
73959;SDS011;62316;48.920;2.342;2024-03-08T08:55:21;54.75;;;42.00;;
73959;SDS011;62316;48.920;2.342;2024-03-08T08:57:50;46.25;;;39.00;;
73959;SDS011;62316;48.920;2.342;2024-03-08T09:00:17;54.25;;;43.00;;
73959;SDS011;62316;48.920;2.342;2024-03-08T09:02:43;51.00;;;39.00;;
73959;SDS011;62316;48.920;2.342;2024-03-08T09:05:09;52.25;;;39.00;;
73959;SDS011;62316;48.920;2.342;2024-03-08T09:07:34;45.50;;;35.75;;
73959;SDS011;62316;48.920;2.342;2024-03-08T09:10:00;53.00;;;41.25;;
73959;SDS011;62316;48.920;2.342;2024-03-08T09:12:25;57.75;;;42.50;;
73959;SDS011;62316;48.920;2.342;2024-03-08T09:14:51;44.50;;;38.25;;
73959;SDS011;62316;48.920;2.342;2024-03-08T09:17:29;54.00;;;40.00;;
73959;SDS011;62316;48.920;2.342;2024-03-08T09:19:57;48.25;;;41.25;;
73959;SDS011;62316;48.920;2.342;2024-03-08T09:22:23;42.50;;;37.50;;
73959;SDS011;62316;48.920;2.342;2024-03-08T09:24:54;53.25;;;40.50;;
73959;SDS011;62316;48.920;2.342;2024-03-08T09:27:26;42.25;;;36.25;;
73959;SDS011;62316;48.920;2.342;2024-03-08T09:29:51;44.25;;;35.25;;
73959;SDS011;62316;48.920;2.342;2024-03-08T09:32:17;43.00;;;37.00;;
73959;SDS011;62316;48.920;2.342;2024-03-08T09:34:42;44.50;;;31.50;;
73959;SDS011;62316;48.920;2.342;2024-03-08T09:37:07;30.75;;;22.50;;
73959;SDS011;62316;48.920;2.342;2024-03-08T09:39:34;44.00;;;37.25;;
73959;SDS011;62316;48.920;2.342;2024-03-08T09:42:02;47.00;;;33.75;;
73959;SDS011;62316;48.920;2.342;2024-03-08T09:44:27;35.00;;;34.00;;
73959;SDS011;62316;48.920;2.342;2024-03-08T09:46:54;40.25;;;34.75;;
73959;SDS011;62316;48.920;2.342;2024-03-08T09:49:19;40.75;;;34.50;;
73959;SDS011;62316;48.920;2.342;2024-03-08T09:51:44;41.75;;;35.75;;
73959;SDS011;62316;48.920;2.342;2024-03-08T09:54:10;46.50;;;36.00;;
73959;SDS011;62316;48.920;2.342;2024-03-08T09:56:42;37.25;;;32.00;;
73959;SDS011;62316;48.920;2.342;2024-03-08T10:02:06;38.00;;;35.75;;
73959;SDS011;62316;48.920;2.342;2024-03-08T10:04:34;39.50;;;33.50;;
73959;SDS011;62316;48.920;2.342;2024-03-08T10:07:00;44.00;;;37.00;;
73959;SDS011;62316;48.920;2.342;2024-03-08T10:09:25;38.50;;;31.25;;
73959;SDS011;62316;48.920;2.342;2024-03-08T10:11:58;34.50;;;29.00;;
73959;SDS011;62316;48.920;2.342;2024-03-08T10:14:24;34.00;;;27.75;;
73959;SDS011;62316;48.920;2.342;2024-03-08T10:16:49;31.50;;;27.75;;
73959;SDS011;62316;48.920;2.342;2024-03-08T10:19:15;34.00;;;31.50;;
73959;SDS011;62316;48.920;2.342;2024-03-08T10:21:50;36.25;;;31.25;;
73959;SDS011;62316;48.920;2.342;2024-03-08T10:24:17;27.00;;;25.50;;
73959;SDS011;62316;48.920;2.342;2024-03-08T10:26:42;34.50;;;30.00;;
73959;SDS011;62316;48.920;2.342;2024-03-08T10:29:09;37.00;;;33.50;;
73959;SDS011;62316;48.920;2.342;2024-03-08T10:31:34;32.75;;;27.50;;
73959;SDS011;62316;48.920;2.342;2024-03-08T10:33:59;38.75;;;30.00;;
73959;SDS011;62316;48.920;2.342;2024-03-08T10:36:26;34.00;;;30.75;;
73959;SDS011;62316;48.920;2.342;2024-03-08T10:38:59;27.50;;;27.00;;
73959;SDS011;62316;48.920;2.342;2024-03-08T10:41:32;31.00;;;25.50;;
73959;SDS011;62316;48.920;2.342;2024-03-08T10:46:48;25.00;;;20.00;;
73959;SDS011;62316;48.920;2.342;2024-03-08T10:49:23;22.00;;;22.00;;
73959;SDS011;62316;48.920;2.342;2024-03-08T10:51:50;17.00;;;16.50;;
73959;SDS011;62316;48.920;2.342;2024-03-08T10:54:17;29.50;;;28.00;;
73959;SDS011;62316;48.920;2.342;2024-03-08T10:56:44;28.25;;;26.25;;
73959;SDS011;62316;48.920;2.342;2024-03-08T10:59:10;26.25;;;23.75;;
73959;SDS011;62316;48.920;2.342;2024-03-08T11:01:45;26.25;;;21.00;;
73959;SDS011;62316;48.920;2.342;2024-03-08T11:04:32;23.00;;;19.25;;
73959;SDS011;62316;48.920;2.342;2024-03-08T11:07:01;28.00;;;24.00;;
73959;SDS011;62316;48.920;2.342;2024-03-08T11:09:40;28.75;;;24.25;;
73959;SDS011;62316;48.920;2.342;2024-03-08T11:15:11;21.00;;;18.00;;
73959;SDS011;62316;48.920;2.342;2024-03-08T11:17:49;24.25;;;21.50;;
73959;SDS011;62316;48.920;2.342;2024-03-08T11:20:16;23.75;;;23.25;;
73959;SDS011;62316;48.920;2.342;2024-03-08T11:22:42;33.00;;;28.00;;
73959;SDS011;62316;48.920;2.342;2024-03-08T11:25:31;27.25;;;21.25;;
73959;SDS011;62316;48.920;2.342;2024-03-08T11:28:10;25.50;;;21.75;;
73959;SDS011;62316;48.920;2.342;2024-03-08T11:30:41;24.50;;;23.25;;
73959;SDS011;62316;48.920;2.342;2024-03-08T11:33:09;24.25;;;22.75;;
73959;SDS011;62316;48.920;2.342;2024-03-08T11:35:37;25.00;;;20.25;;
73959;SDS011;62316;48.920;2.342;2024-03-08T11:38:03;26.00;;;20.00;;
73959;SDS011;62316;48.920;2.342;2024-03-08T11:40:37;26.50;;;21.50;;
73959;SDS011;62316;48.920;2.342;2024-03-08T11:43:05;20.00;;;19.00;;
73959;SDS011;62316;48.920;2.342;2024-03-08T11:45:32;19.00;;;16.00;;
73959;SDS011;62316;48.920;2.342;2024-03-08T11:47:57;31.00;;;20.25;;
73959;SDS011;62316;48.920;2.342;2024-03-08T11:50:24;20.00;;;16.25;;
73959;SDS011;62316;48.920;2.342;2024-03-08T11:52:50;18.75;;;16.75;;
73959;SDS011;62316;48.920;2.342;2024-03-08T11:55:15;18.75;;;16.00;;
73959;SDS011;62316;48.920;2.342;2024-03-08T11:57:40;24.00;;;22.50;;
73959;SDS011;62316;48.920;2.342;2024-03-08T12:00:14;22.75;;;20.25;;
73959;SDS011;62316;48.920;2.342;2024-03-08T12:02:46;23.25;;;22.00;;
73959;SDS011;62316;48.920;2.342;2024-03-08T12:05:16;33.25;;;29.75;;
73959;SDS011;62316;48.920;2.342;2024-03-08T12:07:42;27.50;;;23.00;;
73959;SDS011;62316;48.920;2.342;2024-03-08T12:10:31;21.75;;;19.50;;
73959;SDS011;62316;48.920;2.342;2024-03-08T12:13:16;22.75;;;21.50;;
73959;SDS011;62316;48.920;2.342;2024-03-08T12:15:48;18.75;;;15.25;;
73959;SDS011;62316;48.920;2.342;2024-03-08T12:18:20;17.50;;;15.50;;
73959;SDS011;62316;48.920;2.342;2024-03-08T12:20:54;18.50;;;18.25;;
73959;SDS011;62316;48.920;2.342;2024-03-08T12:23:35;20.25;;;16.00;;
73959;SDS011;62316;48.920;2.342;2024-03-08T12:26:13;23.00;;;21.50;;
73959;SDS011;62316;48.920;2.342;2024-03-08T12:28:51;17.25;;;17.25;;
73959;SDS011;62316;48.920;2.342;2024-03-08T12:31:17;18.00;;;16.75;;
73959;SDS011;62316;48.920;2.342;2024-03-08T12:33:52;13.50;;;13.50;;
73959;SDS011;62316;48.920;2.342;2024-03-08T12:36:18;24.50;;;17.50;;
73959;SDS011;62316;48.920;2.342;2024-03-08T12:38:46;18.25;;;17.25;;
73959;SDS011;62316;48.920;2.342;2024-03-08T12:41:13;21.00;;;16.00;;
73959;SDS011;62316;48.920;2.342;2024-03-08T12:43:38;21.75;;;20.75;;
73959;SDS011;62316;48.920;2.342;2024-03-08T12:46:03;25.00;;;20.50;;
73959;SDS011;62316;48.920;2.342;2024-03-08T12:48:38;11.25;;;9.00;;
73959;SDS011;62316;48.920;2.342;2024-03-08T12:51:05;20.25;;;20.25;;
73959;SDS011;62316;48.920;2.342;2024-03-08T12:53:32;18.25;;;16.00;;
73959;SDS011;62316;48.920;2.342;2024-03-08T12:56:05;18.50;;;16.50;;
73959;SDS011;62316;48.920;2.342;2024-03-08T12:58:34;4.25;;;2.00;;
73959;SDS011;62316;48.920;2.342;2024-03-08T13:00:59;16.00;;;14.00;;
73959;SDS011;62316;48.920;2.342;2024-03-08T13:03:25;21.75;;;18.25;;
73959;SDS011;62316;48.920;2.342;2024-03-08T13:05:50;20.00;;;17.00;;
73959;SDS011;62316;48.920;2.342;2024-03-08T13:08:24;14.75;;;12.25;;
73959;SDS011;62316;48.920;2.342;2024-03-08T13:10:52;18.00;;;14.75;;
73959;SDS011;62316;48.920;2.342;2024-03-08T13:13:18;18.25;;;16.50;;
73959;SDS011;62316;48.920;2.342;2024-03-08T13:15:44;21.25;;;16.75;;
73959;SDS011;62316;48.920;2.342;2024-03-08T13:18:10;17.00;;;16.25;;
73959;SDS011;62316;48.920;2.342;2024-03-08T13:20:41;13.00;;;12.00;;
73959;SDS011;62316;48.920;2.342;2024-03-08T13:23:17;22.75;;;19.50;;
73959;SDS011;62316;48.920;2.342;2024-03-08T13:25:42;18.50;;;16.25;;
73959;SDS011;62316;48.920;2.342;2024-03-08T13:28:14;20.50;;;16.75;;
73959;SDS011;62316;48.920;2.342;2024-03-08T13:30:43;22.50;;;21.50;;
73959;SDS011;62316;48.920;2.342;2024-03-08T13:33:09;19.00;;;18.25;;
73959;SDS011;62316;48.920;2.342;2024-03-08T13:35:34;18.00;;;12.50;;
73959;SDS011;62316;48.920;2.342;2024-03-08T13:38:00;20.00;;;19.00;;
73959;SDS011;62316;48.920;2.342;2024-03-08T13:40:31;18.50;;;15.50;;
73959;SDS011;62316;48.920;2.342;2024-03-08T13:42:57;18.75;;;17.25;;
73959;SDS011;62316;48.920;2.342;2024-03-08T13:45:23;15.75;;;14.75;;
73959;SDS011;62316;48.920;2.342;2024-03-08T13:47:53;17.25;;;17.25;;
73959;SDS011;62316;48.920;2.342;2024-03-08T13:50:24;13.00;;;11.50;;
73959;SDS011;62316;48.920;2.342;2024-03-08T13:52:51;17.50;;;16.00;;
73959;SDS011;62316;48.920;2.342;2024-03-08T13:55:18;14.25;;;14.00;;
73959;SDS011;62316;48.920;2.342;2024-03-08T13:57:44;14.25;;;10.50;;
73959;SDS011;62316;48.920;2.342;2024-03-08T14:00:10;10.25;;;10.00;;
73959;SDS011;62316;48.920;2.342;2024-03-08T14:02:42;10.50;;;10.00;;
73959;SDS011;62316;48.920;2.342;2024-03-08T14:05:08;13.00;;;12.33;;
73959;SDS011;62316;48.920;2.342;2024-03-08T14:07:42;18.75;;;16.50;;
73959;SDS011;62316;48.920;2.342;2024-03-08T14:10:11;11.00;;;10.25;;
73959;SDS011;62316;48.920;2.342;2024-03-08T14:12:37;12.00;;;9.00;;
73959;SDS011;62316;48.920;2.342;2024-03-08T14:15:15;16.25;;;14.75;;
73959;SDS011;62316;48.920;2.342;2024-03-08T14:17:41;12.50;;;10.25;;
73959;SDS011;62316;48.920;2.342;2024-03-08T14:20:06;13.00;;;11.25;;
73959;SDS011;62316;48.920;2.342;2024-03-08T14:22:36;15.50;;;14.25;;
73959;SDS011;62316;48.920;2.342;2024-03-08T14:25:01;13.25;;;10.50;;
73959;SDS011;62316;48.920;2.342;2024-03-08T14:27:30;12.00;;;10.00;;